createdAt,value
2019-04-23T00:01:43.316Z,13.10
2019-04-23T00:04:10.393Z,13.10
2019-04-23T00:06:47.626Z,13.10
2019-04-23T00:09:20.418Z,13.10
2019-04-23T00:11:39.861Z,13.00
2019-04-23T00:14:11.540Z,13.00
2019-04-23T00:16:39.450Z,13.00
2019-04-23T00:19:11.641Z,13.00
2019-04-23T00:21:40.555Z,12.90
2019-04-23T00:24:21.426Z,12.90
2019-04-23T00:26:41.887Z,12.90
2019-04-23T00:29:13.553Z,12.90
2019-04-23T00:34:10.815Z,12.90
2019-04-23T00:36:40.302Z,12.90
2019-04-23T00:39:08.329Z,12.80
2019-04-23T00:41:36.528Z,12.80
2019-04-23T00:44:12.568Z,12.80
2019-04-23T00:46:34.962Z,12.80
2019-04-23T00:51:36.813Z,12.80
2019-04-23T00:54:09.081Z,12.80
2019-04-23T00:59:01.420Z,12.70
2019-04-23T01:04:08.497Z,12.60
2019-04-23T01:06:29.178Z,12.60
2019-04-23T01:09:03.722Z,12.50
2019-04-23T01:11:34.173Z,12.50
2019-04-23T01:14:06.672Z,12.50
2019-04-23T01:16:28.664Z,12.50
2019-04-23T01:19:20.573Z,12.40
2019-04-23T01:21:28.344Z,12.40
2019-04-23T01:24:19.244Z,12.40
2019-04-23T01:27:41.220Z,12.40
2019-04-23T01:30:03.326Z,12.30
2019-04-23T01:32:28.839Z,12.30
2019-04-23T01:35:07.259Z,12.20
2019-04-23T01:37:28.836Z,12.20
2019-04-23T01:39:57.711Z,12.30
2019-04-23T01:42:29.327Z,12.30
2019-04-23T01:45:03.373Z,12.20
2019-04-23T01:47:24.900Z,12.30
2019-04-23T01:52:24.949Z,12.30
2019-04-23T01:54:54.109Z,12.20
2019-04-23T01:57:28.934Z,12.20
2019-04-23T01:59:58.476Z,12.20
2019-04-23T02:02:24.513Z,12.20
2019-04-23T02:04:51.460Z,12.20
2019-04-23T02:07:25.357Z,12.10
2019-04-23T02:09:48.313Z,12.10
2019-04-23T02:12:18.165Z,12.10
2019-04-23T02:14:50.167Z,12.00
2019-04-23T02:17:17.051Z,12.00
2019-04-23T02:19:46.296Z,12.00
2019-04-23T02:22:31.451Z,11.90
2019-04-23T02:25:02.100Z,11.90
2019-04-23T02:27:36.226Z,11.90
2019-04-23T02:32:40.287Z,11.80
2019-04-23T02:35:09.983Z,11.80
2019-04-23T02:37:51.553Z,11.80
2019-04-23T02:40:09.066Z,11.80
2019-04-23T02:42:49.638Z,11.70
2019-04-23T02:47:35.008Z,11.60
2019-04-23T02:50:09.200Z,11.60
2019-04-23T02:52:28.990Z,11.50
2019-04-23T02:55:04.502Z,11.50
2019-04-23T02:57:29.382Z,11.40
2019-04-23T03:02:37.075Z,11.30
2019-04-23T03:07:36.728Z,11.30
2019-04-23T03:09:58.740Z,11.30
2019-04-23T03:12:38.897Z,11.30
2019-04-23T03:15:00.809Z,11.40
2019-04-23T03:17:54.609Z,11.30
2019-04-23T03:20:23.898Z,11.20
2019-04-23T03:22:56.266Z,11.10
2019-04-23T03:25:17.163Z,11.10
2019-04-23T03:27:50.050Z,11.10
2019-04-23T03:33:40.538Z,10.90
2019-04-23T03:40:18.811Z,10.50
2019-04-23T03:42:49.255Z,10.50
2019-04-23T03:47:37.493Z,10.50
2019-04-23T03:50:24.112Z,10.40
2019-04-23T03:55:16.294Z,10.20
2019-04-23T04:00:13.187Z,10.00
2019-04-23T04:02:48.613Z,9.90
2019-04-23T04:05:10.671Z,9.90
2019-04-23T04:10:02.516Z,10.00
2019-04-23T04:12:35.553Z,10.00
2019-04-23T04:17:40.263Z,9.90
2019-04-23T04:20:05.225Z,9.80
2019-04-23T04:22:47.122Z,9.80
2019-04-23T04:27:47.875Z,9.90
2019-04-23T04:32:31.605Z,9.90
2019-04-23T04:42:28.565Z,9.70
2019-04-23T04:45:09.568Z,9.70
2019-04-23T04:47:40.236Z,9.70
2019-04-23T04:50:11.975Z,9.80
2019-04-23T04:55:00.118Z,9.90
2019-04-23T05:00:01.722Z,9.80
2019-04-23T05:05:22.452Z,9.80
2019-04-23T05:07:27.668Z,9.80
2019-04-23T05:17:30.199Z,10.00
2019-04-23T05:19:56.734Z,10.00
2019-04-23T05:22:25.795Z,10.00
2019-04-23T05:24:45.215Z,10.00
2019-04-23T05:27:17.676Z,10.10
2019-04-23T05:29:53.111Z,10.20
2019-04-23T05:32:21.930Z,10.20
2019-04-23T05:34:50.463Z,10.30
2019-04-23T05:37:24.794Z,10.40
2019-04-23T05:39:45.644Z,10.40
2019-04-23T05:42:19.922Z,10.40
2019-04-23T05:47:19.123Z,10.50
2019-04-23T05:49:47.566Z,10.60
2019-04-23T05:52:29.854Z,10.80
2019-04-23T05:54:46.465Z,10.90
2019-04-23T05:57:06.666Z,10.90
2019-04-23T05:59:37.271Z,11.00
2019-04-23T06:02:13.303Z,11.00
2019-04-23T06:04:39.024Z,11.00
2019-04-23T06:09:44.615Z,11.20
2019-04-23T06:14:55.150Z,11.30
2019-04-23T06:19:24.623Z,11.60
2019-04-23T06:24:35.994Z,11.90
2019-04-23T06:27:06.725Z,11.90
2019-04-23T06:29:35.464Z,12.00
2019-04-23T06:31:58.790Z,12.10
2019-04-23T06:34:36.361Z,12.10
2019-04-23T06:37:02.116Z,12.20
2019-04-23T06:39:36.960Z,12.30
2019-04-23T06:42:00.327Z,12.40
2019-04-23T06:44:37.769Z,12.50
2019-04-23T06:47:05.718Z,12.60
2019-04-23T06:49:37.713Z,12.70
2019-04-23T06:52:08.403Z,12.80
2019-04-23T06:54:43.175Z,12.90
2019-04-23T06:57:10.767Z,12.90
2019-04-23T06:59:30.682Z,13.00
2019-04-23T07:02:06.191Z,13.10
2019-04-23T07:04:34.288Z,13.20
2019-04-23T07:07:25.510Z,13.30
2019-04-23T07:09:28.683Z,13.40
2019-04-23T07:12:02.423Z,13.50
2019-04-23T07:14:33.918Z,13.60
2019-04-23T07:16:52.546Z,13.70
2019-04-23T07:22:03.378Z,13.90
2019-04-23T07:24:24.531Z,14.00
2019-04-23T07:26:49.484Z,14.20
2019-04-23T07:29:25.785Z,14.30
2019-04-23T07:31:54.639Z,14.30
2019-04-23T07:34:19.223Z,14.30
2019-04-23T07:36:55.136Z,14.30
2019-04-23T07:47:26.324Z,15.00
2019-04-23T07:49:54.782Z,15.00
2019-04-23T07:52:17.997Z,15.00
2019-04-23T07:54:51.198Z,15.10
2019-04-23T07:57:20.183Z,15.10
2019-04-23T07:59:51.595Z,15.20
2019-04-23T08:04:56.626Z,15.40
2019-04-23T08:07:17.908Z,15.60
2019-04-23T08:14:40.547Z,15.80
2019-04-23T08:17:09.054Z,15.90
2019-04-23T08:24:50.795Z,16.30
2019-04-23T08:27:18.640Z,16.40
2019-04-23T08:29:48.884Z,16.50
2019-04-23T08:32:16.832Z,16.60
2019-04-23T08:35:01.286Z,16.70
2019-04-23T08:37:45.419Z,16.80
2019-04-23T08:39:43.176Z,16.90
2019-04-23T08:42:39.673Z,17.00
2019-04-23T08:44:57.001Z,17.10
2019-04-23T08:47:29.931Z,17.20
2019-04-23T08:50:16.549Z,17.30
2019-04-23T08:52:27.514Z,17.40
2019-04-23T08:57:29.327Z,17.40
2019-04-23T08:59:55.626Z,17.50
2019-04-23T09:05:00.113Z,17.50
2019-04-23T09:07:29.782Z,17.50
2019-04-23T09:09:57.233Z,17.50
2019-04-23T09:12:28.648Z,17.50
2019-04-23T09:14:53.965Z,17.50
2019-04-23T09:17:26.656Z,17.50
2019-04-23T09:20:11.823Z,17.60
2019-04-23T09:22:33.404Z,17.60
2019-04-23T09:24:55.579Z,17.70
2019-04-23T09:27:31.804Z,17.80
2019-04-23T09:32:40.156Z,17.90
2019-04-23T09:37:37.294Z,18.10
2019-04-23T09:40:39.063Z,18.20
2019-04-23T09:43:00.690Z,18.30
2019-04-23T09:45:35.789Z,18.30
2019-04-23T10:03:01.598Z,18.60
2019-04-23T10:05:22.430Z,18.60
2019-04-23T10:07:49.467Z,18.60
2019-04-23T10:10:10.314Z,18.50
2019-04-23T10:12:38.042Z,18.50
2019-04-23T10:15:13.806Z,18.50
2019-04-23T10:17:36.130Z,18.40
2019-04-23T10:20:06.644Z,18.40
2019-04-23T10:22:37.340Z,18.30
2019-04-23T10:25:06.668Z,18.30
2019-04-23T10:27:35.050Z,18.30
2019-04-23T10:30:05.859Z,18.30
2019-04-23T10:32:33.719Z,18.30
2019-04-23T10:35:11.885Z,18.30
2019-04-23T10:37:40.478Z,18.40
2019-04-23T10:40:03.533Z,18.40
2019-04-23T10:42:32.053Z,18.40
2019-04-23T10:45:16.633Z,18.40
2019-04-23T10:48:30.910Z,18.40
2019-04-23T11:00:55.740Z,18.40
2019-04-23T11:03:38.081Z,18.40
2019-04-23T11:06:06.639Z,18.50
2019-04-23T11:08:21.548Z,18.50
2019-04-23T11:10:46.340Z,18.50
2019-04-23T11:13:25.723Z,18.50
2019-04-23T11:16:12.690Z,18.50
2019-04-23T11:18:08.932Z,18.50
2019-04-23T11:20:54.060Z,18.50
2019-04-23T11:23:19.214Z,18.50
2019-04-23T11:25:42.904Z,18.50
2019-04-23T11:28:20.713Z,18.50
2019-04-23T11:30:41.635Z,18.60
2019-04-23T11:33:20.264Z,18.60
2019-04-23T11:38:43.975Z,18.70
2019-04-23T11:40:37.004Z,18.70
2019-04-23T11:48:32.933Z,18.80
2019-04-23T11:55:44.944Z,18.80
2019-04-23T12:00:49.153Z,18.90
2019-04-23T12:03:22.654Z,18.90
2019-04-23T12:05:58.355Z,18.90
2019-04-23T12:11:26.898Z,19.00
2019-04-23T12:13:35.899Z,19.10
2019-04-23T12:16:00.927Z,19.10
2019-04-23T12:18:35.333Z,19.20
2019-04-23T12:20:57.564Z,19.30
2019-04-23T12:23:40.619Z,19.30
2019-04-23T12:26:07.319Z,19.30
2019-04-23T12:28:35.637Z,19.40
2019-04-23T12:31:22.972Z,19.40
2019-04-23T12:35:51.534Z,19.50
2019-04-23T12:38:25.695Z,19.60
2019-04-23T12:40:56.320Z,19.60
2019-04-23T12:45:46.862Z,19.70
2019-04-23T12:48:33.815Z,19.70
2019-04-23T12:51:07.638Z,19.80
2019-04-23T12:55:53.722Z,19.80
2019-04-23T12:58:26.939Z,19.90
2019-04-23T13:00:51.473Z,20.00
2019-04-23T13:03:32.936Z,20.00
2019-04-23T13:05:51.272Z,20.00
2019-04-23T13:08:30.425Z,20.10
2019-04-23T13:10:45.469Z,20.10
2019-04-23T13:13:23.575Z,20.10
2019-04-23T13:16:06.393Z,20.10
2019-04-23T13:18:19.612Z,20.10
2019-04-23T13:23:34.585Z,20.20
2019-04-23T13:28:28.053Z,20.20
2019-04-23T13:33:33.719Z,20.30
2019-04-23T13:36:01.055Z,20.20
2019-04-23T13:38:34.907Z,20.20
2019-04-23T13:41:01.207Z,20.20
2019-04-23T13:48:15.189Z,20.20
2019-04-23T13:55:44.466Z,20.20
2019-04-23T13:58:36.335Z,20.20
2019-04-23T14:01:00.953Z,20.20
2019-04-23T14:03:30.208Z,20.20
2019-04-23T14:06:18.158Z,20.20
2019-04-23T14:11:14.083Z,20.30
2019-04-23T14:13:48.189Z,20.30
2019-04-23T14:21:17.209Z,20.30
2019-04-23T14:23:57.684Z,20.20
2019-04-23T14:26:15.935Z,20.20
2019-04-23T14:28:43.680Z,20.20
2019-04-23T14:33:46.774Z,20.10
2019-04-23T14:36:00.849Z,20.10
2019-04-23T14:41:09.914Z,20.00
2019-04-23T14:43:30.855Z,20.00
2019-04-23T14:48:28.394Z,20.00
2019-04-23T14:51:09.826Z,20.00
2019-04-23T14:56:07.690Z,20.00
2019-04-23T14:58:42.497Z,20.00
2019-04-23T15:01:16.016Z,20.00
2019-04-23T15:06:15.035Z,20.00
2019-04-23T15:08:40.380Z,20.00
2019-04-23T15:11:19.250Z,20.00
2019-04-23T15:13:27.571Z,20.00
2019-04-23T15:16:10.819Z,19.90
2019-04-23T15:18:44.958Z,20.00
2019-04-23T15:21:28.337Z,19.90
2019-04-23T15:27:10.388Z,19.90
2019-04-23T15:28:11.115Z,19.90
2019-04-23T15:31:14.246Z,19.90
2019-04-23T15:36:27.193Z,19.80
2019-04-23T15:41:10.464Z,19.80
2019-04-23T15:43:30.439Z,19.80
2019-04-23T15:46:04.366Z,19.80
2019-04-23T15:48:33.674Z,19.80
2019-04-23T15:51:10.070Z,19.80
2019-04-23T15:53:28.494Z,19.80
2019-04-23T15:55:59.465Z,19.80
2019-04-23T15:58:33.248Z,19.80
2019-04-23T16:03:17.528Z,19.90
2019-04-23T16:05:44.776Z,19.90
2019-04-23T16:08:45.901Z,20.00
2019-04-23T16:11:15.653Z,20.00
2019-04-23T16:13:54.385Z,19.90
2019-04-23T16:16:18.375Z,19.90
2019-04-23T16:18:42.190Z,20.00
2019-04-23T16:23:42.278Z,20.00
2019-04-23T16:26:14.548Z,20.00
2019-04-23T16:29:01.172Z,20.10
2019-04-23T16:31:14.914Z,20.10
2019-04-23T16:33:51.057Z,20.10
2019-04-23T16:38:44.817Z,20.00
2019-04-23T16:41:16.837Z,20.00
2019-04-23T16:46:17.802Z,19.90
2019-04-23T16:48:49.342Z,19.90
2019-04-23T16:58:42.540Z,19.60
2019-04-23T17:03:40.197Z,19.50
2019-04-23T17:06:10.338Z,19.50
2019-04-23T17:11:15.718Z,19.40
2019-04-23T17:13:55.469Z,19.40
2019-04-23T17:16:16.743Z,19.40
2019-04-23T17:21:07.824Z,19.30
2019-04-23T17:26:13.652Z,19.20
2019-04-23T17:28:39.475Z,19.10
2019-04-23T17:31:26.330Z,19.10
2019-04-23T17:36:22.919Z,18.90
2019-04-23T17:44:00.221Z,18.70
2019-04-23T17:46:22.023Z,18.60
2019-04-23T17:49:10.866Z,18.50
2019-04-23T17:51:30.975Z,18.50
2019-04-23T17:54:10.758Z,18.40
2019-04-23T17:56:50.021Z,18.40
2019-04-23T17:59:04.347Z,18.20
2019-04-23T18:02:12.826Z,18.20
2019-04-23T18:06:51.004Z,18.10
2019-04-23T18:09:14.666Z,18.00
2019-04-23T18:11:31.973Z,17.90
2019-04-23T18:14:02.515Z,17.80
2019-04-23T18:27:06.716Z,17.50
2019-04-23T18:29:51.603Z,17.50
2019-04-23T18:32:22.128Z,17.40
2019-04-23T18:35:08.780Z,17.40
2019-04-23T18:42:26.657Z,17.20
2019-04-23T18:47:26.168Z,17.10
2019-04-23T18:54:42.239Z,17.00
2019-04-23T18:57:19.119Z,17.00
2019-04-23T19:00:02.538Z,16.90
2019-04-23T19:02:56.585Z,16.90
2019-04-23T19:13:09.523Z,16.70
2019-04-23T19:20:53.869Z,16.60
2019-04-23T19:23:13.810Z,16.50
2019-04-23T19:25:31.626Z,16.50
2019-04-23T19:28:23.414Z,16.50
2019-04-23T19:33:25.120Z,16.40
2019-04-23T19:36:03.576Z,16.40
2019-04-23T19:38:20.600Z,16.40
2019-04-23T19:40:51.906Z,16.30
2019-04-23T19:43:19.452Z,16.30
2019-04-23T19:45:53.009Z,16.30
2019-04-23T19:48:19.452Z,16.30
2019-04-23T19:50:54.249Z,16.20
2019-04-23T19:55:57.110Z,16.20
2019-04-23T19:58:14.318Z,16.20
2019-04-23T20:01:11.798Z,16.20
2019-04-23T20:05:51.548Z,16.20
2019-04-23T20:08:13.290Z,16.20
2019-04-23T20:10:41.127Z,16.10
2019-04-23T20:13:04.930Z,16.10
2019-04-23T20:15:51.138Z,16.10
2019-04-23T20:18:09.061Z,16.00
2019-04-23T20:20:46.930Z,16.00
2019-04-23T20:23:14.300Z,16.00
2019-04-23T20:26:02.733Z,16.00
2019-04-23T20:28:24.612Z,16.00
2019-04-23T20:36:03.847Z,15.90
2019-04-23T20:38:33.022Z,15.80
2019-04-23T20:43:23.678Z,15.70
2019-04-23T20:45:56.886Z,15.70
2019-04-23T20:48:25.462Z,15.70
2019-04-23T20:50:44.431Z,15.70
2019-04-23T20:53:17.917Z,15.70
2019-04-23T21:01:13.243Z,15.60
2019-04-23T21:06:06.344Z,15.50
2019-04-23T21:09:01.125Z,15.50
2019-04-23T21:10:55.607Z,15.50
2019-04-23T21:13:53.197Z,15.50
2019-04-23T21:15:58.268Z,15.40
2019-04-23T21:23:36.048Z,15.40
2019-04-23T21:25:54.025Z,15.30
2019-04-23T21:31:04.851Z,15.30
2019-04-23T21:36:25.350Z,15.30
2019-04-23T21:39:04.392Z,15.40
2019-04-23T21:41:39.519Z,15.30
2019-04-23T21:46:27.710Z,15.30
2019-04-23T21:49:09.378Z,15.30
2019-04-23T21:51:41.949Z,15.30
2019-04-23T21:58:58.051Z,15.20
2019-04-23T22:04:08.826Z,15.20
2019-04-23T22:06:28.599Z,15.20
2019-04-23T22:09:02.807Z,15.10
2019-04-23T22:11:48.287Z,15.10
2019-04-23T22:16:26.016Z,15.10
2019-04-23T22:19:05.738Z,15.10
2019-04-23T22:26:34.726Z,14.90
2019-04-23T22:31:23.412Z,14.90
2019-04-23T22:33:53.385Z,14.90
2019-04-23T22:36:15.014Z,15.00
2019-04-23T22:38:51.227Z,14.90
2019-04-23T22:41:16.356Z,14.90
2019-04-23T22:43:55.659Z,14.90
2019-04-23T22:46:23.129Z,15.00
2019-04-23T22:49:03.592Z,15.00
2019-04-23T22:51:31.023Z,15.00
2019-04-23T22:54:02.840Z,15.00
2019-04-23T22:56:20.766Z,15.00
2019-04-23T22:59:03.531Z,15.00
2019-04-23T23:01:26.656Z,14.90
2019-04-23T23:04:02.086Z,14.90
2019-04-23T23:06:30.986Z,14.80
2019-04-23T23:09:10.434Z,14.80
2019-04-23T23:11:22.685Z,14.70
2019-04-23T23:14:09.105Z,14.60
2019-04-23T23:16:21.412Z,14.50
2019-04-23T23:18:59.456Z,14.50
2019-04-23T23:21:22.312Z,14.40
2019-04-23T23:23:52.893Z,14.40
2019-04-23T23:26:21.945Z,14.40
2019-04-23T23:29:02.297Z,14.30
2019-04-23T23:31:22.419Z,14.30
2019-04-23T23:33:54.211Z,14.30
2019-04-23T23:36:20.520Z,14.30
2019-04-23T23:41:26.413Z,14.20
2019-04-23T23:44:07.390Z,14.20
2019-04-23T23:46:31.393Z,14.10
2019-04-23T23:48:48.439Z,14.10
2019-04-23T23:51:27.522Z,14.00
2019-04-23T23:53:57.130Z,13.90
2019-04-23T23:56:15.755Z,13.90
2019-04-23T23:58:56.911Z,13.90
